Latest Weather Observations for Swanbourne

IDW60901

Issued at 1:21 pm WST Thursday 28 January 2021 (issued every 10 minutes, with the page automatically refreshed every 10 minutes)

About weather observations | Map of Perth area stations | Latest observations for Perth area | Other Formats
Station Details ID: 009215 Name: SWANBOURNE Lat: -31.96 Lon: 115.76 Height: 40.96 m
Data from the previous 72 hours. | See also: Recent months at Swanbourne
Date/Time
WST
Temp
°C
App
Temp
°C
Dew
Point
°C
Rel
Hum
%
Delta-T
°C
Wind Press
QNH
hPa
Press
MSL
hPa
Rain since
9am
mm
Dir  Spd
km/h
Gust
km/h
Spd
kts
Gust
kts
28/01:00pm 25.9 23.2 16.7 57 5.7 SW 26 37 14 20 - - 0.0
28/12:30pm 25.4 23.1 15.7 55 5.9 SW 22 37 12 20 - - 0.0
28/12:00pm 26.2 23.2 10.8 38 8.7 SSE 17 28 9 15 - - 0.0
28/11:30am 25.6 24.0 11.7 42 7.9 SE 11 26 6 14 - - 0.0
28/11:00am 24.8 23.1 12.4 46 7.1 SSE 13 28 7 15 - - 0.0
28/10:30am 23.1 21.3 12.1 50 6.2 SSE 13 28 7 15 - - 0.0
28/10:00am 22.9 21.1 12.2 51 6.1 SE 13 22 7 12 - - 0.0
28/09:30am 22.0 20.6 12.3 54 5.5 SE 11 19 6 10 - - 0.0
28/09:00am 20.3 17.6 11.8 58 4.7 ESE 17 24 9 13 - - 0.0
28/08:30am 19.5 16.4 11.5 60 4.4 SE 19 30 10 16 - - 0.0
28/08:00am 19.4 17.2 10.9 58 4.6 ESE 13 24 7 13 - - 0.0
28/07:30am 17.9 15.1 10.0 60 4.2 ESE 15 26 8 14 - - 0.0
28/07:00am 17.2 14.0 9.9 62 3.9 SE 17 26 9 14 - - 0.0
28/06:30am 16.4 14.1 9.1 62 3.8 SE 11 20 6 11 - - 0.0
28/06:00am 15.9 12.3 8.4 61 3.8 SE 17 24 9 13 - - 0.0
28/05:30am 15.5 12.5 7.5 59 4.0 SE 13 20 7 11 - - 0.0
28/05:00am 15.4 12.7 7.2 58 4.1 SE 11 15 6 8 - - 0.0
28/04:30am 16.3 12.8 7.3 55 4.5 SE 15 22 8 12 - - 0.0
28/04:00am 16.6 12.7 7.3 54 4.6 ESE 17 28 9 15 - - 0.0
28/03:30am 16.9 13.0 7.3 53 4.8 ESE 17 28 9 15 - - 0.0
28/03:00am 17.4 12.6 7.2 51 5.1 ESE 22 39 12 21 - - 0.0
28/02:30am 17.8 13.5 7.0 49 5.4 SE 19 33 10 18 - - 0.0
28/02:00am 18.2 13.7 7.0 48 5.6 ESE 20 41 11 22 - - 0.0
28/01:30am 18.6 14.3 6.8 46 5.9 SE 19 33 10 18 - - 0.0
28/01:00am 19.2 14.8 6.7 44 6.3 SE 19 35 10 19 - - 0.0
28/12:30am 19.2 15.9 6.3 43 6.4 SE 13 26 7 14 - - 0.0
28/12:00am 19.3 15.9 6.1 42 6.6 SE 13 20 7 11 - - 0.0
 
Date/Time
WST
Temp
°C
App
Temp
°C
Dew
Point
°C
Rel
Hum
%
Delta-T
°C
Wind Press
QNH
hPa
Press
MSL
hPa
Rain since
9am
mm
Dir  Spd
km/h
Gust
km/h
Spd
kts
Gust
kts
27/11:30pm 20.1 16.0 6.1 40 7.0 SE 17 30 9 16 - - 0.0
27/11:00pm 20.3 16.6 6.3 40 7.0 SE 15 24 8 13 - - 0.0
27/10:30pm 20.7 17.2 7.3 42 6.9 SSE 15 24 8 13 - - 0.0
27/10:00pm 21.5 17.7 7.7 41 7.2 SSE 17 33 9 18 - - 0.0
27/09:30pm 21.6 17.7 8.8 44 6.8 SSE 19 26 10 14 - - 0.0
27/09:00pm 21.7 18.3 11.4 52 5.7 S 20 32 11 17 - - 0.0
27/08:30pm 21.6 17.8 12.5 56 5.2 S 24 44 13 24 - - 0.0
27/08:00pm 21.4 18.0 12.5 57 5.0 S 22 39 12 21 - - 0.0
27/07:30pm 21.6 16.6 12.2 55 5.3 SSW 30 43 16 23 - - 0.0
27/07:00pm 21.6 16.6 12.2 55 5.3 SSW 30 43 16 23 - - 0.0
27/06:41pm 21.8 17.1 12.1 54 5.5 SSW 28 48 15 26 - - 0.0
27/06:30pm 21.9 17.0 12.5 55 5.3 SSW 30 46 16 25 - - 0.0
27/06:00pm 21.8 16.4 12.1 54 5.5 SSW 32 52 17 28 - - 0.0
27/05:30pm 22.1 17.2 12.4 54 5.5 SSW 30 50 16 27 - - 0.0
27/05:00pm 23.0 18.0 12.3 51 6.1 SSW 30 50 16 27 - - 0.0
27/04:55pm 23.2 18.1 11.9 49 6.4 SSW 30 50 16 27 - - 0.0
27/04:30pm 23.1 17.2 10.5 45 6.9 SSW 32 48 17 26 - - 0.0
27/04:04pm 23.0 17.7 12.6 52 5.9 SW 32 50 17 27 - - 0.0
27/04:00pm 22.9 17.5 12.8 53 5.8 SSW 33 50 18 27 - - 0.0
27/03:55pm 22.9 17.4 11.9 50 6.2 SSW 32 50 17 27 - - 0.0
27/03:30pm 23.3 18.0 12.6 51 6.1 SSW 32 46 17 25 - - 0.0
27/03:00pm 23.5 18.8 13.1 52 6.0 SSW 30 46 16 25 - - 0.0
27/02:30pm 23.6 18.3 12.6 50 6.3 SW 32 43 17 23 - - 0.0
27/02:00pm 23.5 19.4 13.7 54 5.7 SW 28 43 15 23 - - 0.0
27/01:30pm 23.5 19.9 13.1 52 6.0 SW 24 39 13 21 - - 0.0
27/01:00pm 23.4 19.6 12.4 50 6.3 SW 24 35 13 19 - - 0.0
27/12:30pm 23.3 19.4 13.2 53 5.8 SSW 26 37 14 20 - - 0.0
27/12:00pm 23.4 18.7 13.3 53 5.9 SSW 30 39 16 21 - - 0.0
27/11:30am 23.3 20.1 14.3 57 5.3 SSW 24 35 13 19 - - 0.0
27/11:00am 21.9 18.7 14.3 62 4.5 SSW 24 35 13 19 - - 0.0
27/10:30am 21.6 19.0 13.8 61 4.5 SSE 20 32 11 17 - - 0.0
27/10:00am 20.9 19.8 15.2 70 3.4 S 15 24 8 13 - - 0.0
27/09:30am 17.6 15.6 15.4 87 1.3 SSE 20 32 11 17 - - 0.0
27/09:00am 20.3 20.1 13.5 65 3.9 WSW 7 9 4 5 - - 0.0
27/08:30am 20.8 21.1 13.5 63 4.2 WSW 4 9 2 5 - - 0.0
27/08:00am 21.3 21.7 13.7 62 4.4 W 4 9 2 5 - - 0.0
27/07:30am 20.0 20.0 12.3 61 4.3 SE 4 9 2 5 - - 0.0
27/07:00am 19.7 19.6 12.0 61 4.3 E 4 7 2 4 - - 0.0
27/06:30am 17.9 17.4 11.9 68 3.3 E 6 6 3 3 - - 0.0
27/06:00am 16.5 15.7 11.6 73 2.7 E 7 9 4 5 - - 0.0
27/05:30am 16.3 15.1 11.5 73 2.6 ESE 9 11 5 6 - - 0.0
27/05:00am 16.6 15.8 11.7 73 2.7 SE 7 9 4 5 - - 0.0
27/04:30am 16.6 15.4 11.5 72 2.8 SE 9 13 5 7 - - 0.0
27/04:00am 16.9 15.7 11.6 71 2.9 SE 9 15 5 8 - - 0.0
27/03:30am 17.1 15.6 11.8 71 2.9 SE 11 17 6 9 - - 0.0
27/03:00am 17.1 16.0 11.8 71 2.9 SE 9 15 5 8 - - 0.0
27/02:30am 17.7 16.7 12.2 70 3.0 SSE 9 17 5 9 - - 0.0
27/02:00am 18.5 17.5 12.3 67 3.4 SE 9 17 5 9 - - 0.0
27/01:30am 19.3 17.2 12.3 64 3.9 SSW 15 24 8 13 - - 0.0
27/01:00am 19.5 16.6 12.3 63 4.0 SSW 19 28 10 15 - - 0.0
27/12:30am 19.6 17.1 12.4 63 4.0 SSW 17 28 9 15 - - 0.0
27/12:00am 19.5 16.6 12.3 63 4.0 SSW 19 28 10 15 - - 0.0
 
Date/Time
WST
Temp
°C
App
Temp
°C
Dew
Point
°C
Rel
Hum
%
Delta-T
°C
Wind Press
QNH
hPa
Press
MSL
hPa
Rain since
9am
mm
Dir  Spd
km/h
Gust
km/h
Spd
kts
Gust
kts
26/11:30pm 19.7 16.9 12.5 63 4.0 SSW 19 28 10 15 - - 0.0
26/11:00pm 19.8 16.1 12.6 63 4.1 SSW 24 37 13 20 - - 0.0
26/10:30pm 19.8 16.4 12.6 63 4.1 SSW 22 35 12 19 - - 0.0
26/10:00pm 19.9 16.2 12.7 63 4.1 SSW 24 37 13 20 - - 0.0
26/09:30pm 20.1 16.5 13.1 64 4.0 SW 24 35 13 19 - - 0.0
26/09:00pm 20.1 17.3 13.3 65 3.9 SSW 20 28 11 15 - - 0.0
26/08:30pm 20.2 17.1 13.4 65 3.9 SW 22 32 12 17 - - 0.0
26/08:00pm 20.4 17.4 13.8 66 3.8 SW 22 32 12 17 - - 0.0
26/07:30pm 20.4 17.4 13.6 65 3.9 SSW 22 33 12 18 - - 0.0
26/07:00pm 20.5 17.6 13.9 66 3.8 SSW 22 32 12 17 - - 0.0
26/06:30pm 21.4 18.5 14.1 63 4.3 SW 22 35 12 19 - - 0.0
26/06:00pm 21.6 18.7 15.2 67 3.8 SW 24 39 13 21 - - 0.0
26/05:50pm 22.1 18.4 15.0 64 4.2 SSW 28 46 15 25 - - 0.0
26/05:30pm 21.9 18.6 15.0 65 4.1 SSW 26 39 14 21 - - 0.0
26/05:00pm 21.7 17.9 14.8 65 4.1 SW 28 41 15 22 - - 0.0
26/04:30pm 22.7 18.8 14.3 59 4.9 SW 28 39 15 21 - - 0.0
26/04:00pm 23.6 20.1 15.4 60 4.9 SW 28 43 15 23 - - 0.0
26/03:30pm 23.6 20.7 15.1 59 5.1 SW 24 41 13 22 - - 0.0
26/03:00pm 23.9 21.0 15.1 58 5.3 SW 24 35 13 19 - - 0.0
26/02:30pm 23.4 20.2 15.2 60 4.9 SW 26 37 14 20 - - 0.0
26/02:00pm 23.3 20.3 14.8 59 5.1 SW 24 33 13 18 - - 0.0
26/01:30pm 23.3 20.9 14.3 57 5.3 SW 20 30 11 16 - - 0.0
26/01:00pm 23.4 21.1 14.1 56 5.5 SW 19 28 10 15 - - 0.0
26/12:30pm 23.0 20.6 14.3 58 5.1 SW 20 32 11 17 - - 0.0
26/12:00pm 23.0 20.7 14.0 57 5.3 WSW 19 28 10 15 - - 0.0
26/11:30am 22.5 19.9 13.3 56 5.3 WSW 19 28 10 15 - - 0.0
26/11:00am 22.6 21.1 13.1 55 5.5 W 13 20 7 11 - - 0.0
26/10:30am 22.4 21.3 13.2 56 5.3 W 11 17 6 9 - - 0.0
26/10:00am 21.6 20.8 13.0 58 4.9 W 9 15 5 8 - - 0.0
26/09:30am 21.5 20.9 13.4 60 4.7 W 9 13 5 7 - - 0.0
26/09:00am 21.2 20.8 13.1 60 4.6 W 7 11 4 6 - - 0.0
26/08:30am 21.4 21.0 12.3 56 5.1 WSW 6 11 3 6 - - 0.0
26/08:00am 20.3 20.5 11.8 58 4.7 SE 2 6 1 3 - - 0.0
26/07:30am 19.8 19.3 12.1 61 4.3 SE 6 11 3 6 - - 0.0
26/07:00am 19.4 18.9 11.9 62 4.2 ESE 6 11 3 6 - - 0.0
26/06:30am 18.3 18.3 12.3 68 3.3 SE 4 9 2 5 - - 0.0
26/06:00am 16.9 16.1 11.8 72 2.8 ESE 7 13 4 7 - - 0.0
26/05:30am 17.0 15.9 11.9 72 2.8 ESE 9 13 5 7 - - 0.0
26/05:00am 17.3 16.2 12.0 71 2.9 ESE 9 13 5 7 - - 0.0
26/04:30am 17.4 16.5 12.5 73 2.7 ESE 9 11 5 6 - - 0.0
26/04:00am 17.5 16.6 12.6 73 2.7 ESE 9 13 5 7 - - 0.0
26/03:30am 17.5 16.9 13.6 78 2.2 ESE 9 15 5 8 - - 0.0
26/03:00am 17.7 17.5 14.6 82 1.8 ESE 9 11 5 6 - - 0.0
26/02:30am 17.9 17.7 14.8 82 1.8 ESE 9 11 5 6 - - 0.0
26/02:00am 18.1 18.0 15.0 82 1.8 ESE 9 11 5 6 - - 0.0
26/01:30am 18.1 18.3 14.8 81 1.9 ESE 7 9 4 5 - - 0.0
26/01:00am 18.5 18.3 14.8 79 2.2 ESE 9 11 5 6 - - 0.0
26/12:30am 19.5 20.1 15.4 77 2.4 ESE 6 7 3 4 - - 0.0
26/12:00am 20.2 20.6 15.4 74 2.8 S 7 13 4 7 - - 0.0
 
Date/Time
WST
Temp
°C
App
Temp
°C
Dew
Point
°C
Rel
Hum
%
Delta-T
°C
Wind Press
QNH
hPa
Press
MSL
hPa
Rain since
9am
mm
Dir  Spd
km/h
Gust
km/h
Spd
kts
Gust
kts
25/11:30pm 20.5 19.7 15.1 71 3.2 S 13 22 7 12 - - 0.0
25/11:00pm 20.5 19.2 14.8 70 3.3 SSW 15 20 8 11 - - 0.0
25/10:30pm 20.4 19.3 15.2 72 3.1 SSW 15 24 8 13 - - 0.0
25/10:00pm 20.6 19.3 14.7 69 3.5 SSW 15 22 8 12 - - 0.0
25/09:30pm 20.6 18.5 14.7 69 3.5 SSW 19 32 10 17 - - 0.0
25/09:00pm 20.5 18.4 15.1 71 3.2 SSW 20 30 11 16 - - 0.0
25/08:30pm 20.5 18.7 15.5 73 3.0 SSW 19 30 10 16 - - 0.0
25/08:00pm 20.7 18.7 15.5 72 3.1 SSW 20 33 11 18 - - 0.0
25/07:30pm 21.0 18.1 13.9 64 4.1 SSW 22 37 12 20 - - 0.0
25/07:00pm 21.4 18.0 13.8 62 4.4 SSW 24 37 13 20 - - 0.0
25/06:30pm 22.0 18.1 13.4 58 5.0 SSW 26 35 14 19 - - 0.0
25/06:00pm 22.9 19.3 13.1 54 5.7 SSW 24 39 13 21 - - 0.0
25/05:30pm 23.2 20.1 14.5 58 5.1 SSW 24 35 13 19 - - 0.0
25/05:00pm 23.2 20.0 14.2 57 5.3 SW 24 35 13 19 - - 0.0
25/04:30pm 23.7 20.7 14.7 57 5.3 SW 24 32 13 17 - - 0.0
25/04:00pm 24.2 21.3 14.0 53 6.0 SW 22 33 12 18 - - 0.0
25/03:30pm 24.5 21.4 13.4 50 6.5 SW 22 33 12 18 - - 0.0
25/03:00pm 24.9 21.9 13.8 50 6.5 SW 22 33 12 18 - - 0.0
25/02:30pm 24.1 20.3 12.4 48 6.7 WSW 24 32 13 17 - - 0.0
25/02:00pm 24.2 20.2 11.9 46 7.0 SW 24 33 13 18 - - 0.0
25/01:30pm 24.2 20.4 11.2 44 7.3 WSW 22 30 12 16 - - 0.0

Latest Capital City Observations: Canberra | Sydney | Melbourne | Brisbane | Adelaide | Perth | Hobart | Darwin

Other formats

Comma delimited format used in spreadsheet applications
http://www.bom.gov.au/fwo/IDW60901/IDW60901.94614.axf

JavaScript Object Notation format (JSON) in row-major order
http://www.bom.gov.au/fwo/IDW60901/IDW60901.94614.json

Data quality

Most of these data are generated automatically and are frequently updated. Quality checks on data are not normally performed. It is possible for incorrect values to appear. Refer to information at About Latest Weather Observations and please check the disclaimer before using these data.